sensor_id;sensor_type;location;lat;lon;timestamp;P1;durP1;ratioP1;P2;durP2;ratioP2
24681;SDS011;12802;53.390;-2.328;2023-04-03T00:00:49;6.38;;;2.25;;
24681;SDS011;12802;53.390;-2.328;2023-04-03T00:03:16;4.40;;;2.13;;
24681;SDS011;12802;53.390;-2.328;2023-04-03T00:05:45;4.07;;;2.22;;
24681;SDS011;12802;53.390;-2.328;2023-04-03T00:08:11;8.40;;;2.40;;
24681;SDS011;12802;53.390;-2.328;2023-04-03T00:10:37;7.80;;;2.65;;
24681;SDS011;12802;53.390;-2.328;2023-04-03T00:13:03;4.13;;;2.03;;
24681;SDS011;12802;53.390;-2.328;2023-04-03T00:15:30;4.78;;;2.10;;
24681;SDS011;12802;53.390;-2.328;2023-04-03T00:17:56;5.00;;;2.20;;
24681;SDS011;12802;53.390;-2.328;2023-04-03T00:20:22;8.93;;;2.63;;
24681;SDS011;12802;53.390;-2.328;2023-04-03T00:22:48;6.20;;;2.92;;
24681;SDS011;12802;53.390;-2.328;2023-04-03T00:25:13;3.03;;;1.65;;
24681;SDS011;12802;53.390;-2.328;2023-04-03T00:27:39;7.53;;;2.30;;
24681;SDS011;12802;53.390;-2.328;2023-04-03T00:30:06;10.82;;;2.60;;
24681;SDS011;12802;53.390;-2.328;2023-04-03T00:32:35;10.20;;;3.00;;
24681;SDS011;12802;53.390;-2.328;2023-04-03T00:35:01;5.68;;;2.40;;
24681;SDS011;12802;53.390;-2.328;2023-04-03T00:37:27;7.75;;;2.63;;
24681;SDS011;12802;53.390;-2.328;2023-04-03T00:39:53;2.90;;;2.00;;
24681;SDS011;12802;53.390;-2.328;2023-04-03T00:42:19;4.68;;;2.42;;
24681;SDS011;12802;53.390;-2.328;2023-04-03T00:47:12;7.20;;;2.88;;
24681;SDS011;12802;53.390;-2.328;2023-04-03T00:49:41;5.30;;;2.65;;
24681;SDS011;12802;53.390;-2.328;2023-04-03T00:52:09;5.57;;;2.38;;
24681;SDS011;12802;53.390;-2.328;2023-04-03T00:54:39;6.93;;;2.13;;
24681;SDS011;12802;53.390;-2.328;2023-04-03T00:57:06;6.85;;;2.70;;
24681;SDS011;12802;53.390;-2.328;2023-04-03T00:59:34;5.03;;;2.25;;
24681;SDS011;12802;53.390;-2.328;2023-04-03T01:02:03;12.98;;;2.75;;
24681;SDS011;12802;53.390;-2.328;2023-04-03T01:04:36;5.38;;;2.30;;
24681;SDS011;12802;53.390;-2.328;2023-04-03T01:07:06;4.43;;;2.38;;
24681;SDS011;12802;53.390;-2.328;2023-04-03T01:09:34;6.90;;;2.75;;
24681;SDS011;12802;53.390;-2.328;2023-04-03T01:12:17;5.57;;;2.40;;
24681;SDS011;12802;53.390;-2.328;2023-04-03T01:14:49;5.00;;;1.80;;
24681;SDS011;12802;53.390;-2.328;2023-04-03T01:19:54;6.00;;;2.22;;
24681;SDS011;12802;53.390;-2.328;2023-04-03T01:22:39;6.65;;;1.98;;
24681;SDS011;12802;53.390;-2.328;2023-04-03T01:25:11;2.83;;;2.08;;
24681;SDS011;12802;53.390;-2.328;2023-04-03T01:27:37;5.07;;;2.30;;
24681;SDS011;12802;53.390;-2.328;2023-04-03T01:30:03;7.38;;;2.40;;
24681;SDS011;12802;53.390;-2.328;2023-04-03T01:32:30;4.28;;;2.33;;
24681;SDS011;12802;53.390;-2.328;2023-04-03T01:34:55;4.88;;;2.40;;
24681;SDS011;12802;53.390;-2.328;2023-04-03T01:37:21;4.75;;;2.38;;
24681;SDS011;12802;53.390;-2.328;2023-04-03T01:39:47;3.25;;;2.40;;
24681;SDS011;12802;53.390;-2.328;2023-04-03T01:42:13;6.47;;;2.70;;
24681;SDS011;12802;53.390;-2.328;2023-04-03T01:44:41;4.22;;;2.38;;
24681;SDS011;12802;53.390;-2.328;2023-04-03T01:47:07;5.55;;;2.22;;
24681;SDS011;12802;53.390;-2.328;2023-04-03T01:49:34;3.88;;;2.47;;
24681;SDS011;12802;53.390;-2.328;2023-04-03T01:51:59;10.85;;;2.70;;
24681;SDS011;12802;53.390;-2.328;2023-04-03T01:54:25;9.50;;;2.92;;
24681;SDS011;12802;53.390;-2.328;2023-04-03T01:56:51;5.25;;;2.10;;
24681;SDS011;12802;53.390;-2.328;2023-04-03T01:59:18;11.48;;;3.17;;
24681;SDS011;12802;53.390;-2.328;2023-04-03T02:01:44;4.68;;;1.65;;
24681;SDS011;12802;53.390;-2.328;2023-04-03T02:04:11;2.70;;;1.85;;
24681;SDS011;12802;53.390;-2.328;2023-04-03T02:06:37;6.00;;;1.98;;
24681;SDS011;12802;53.390;-2.328;2023-04-03T02:09:03;8.55;;;2.30;;
24681;SDS011;12802;53.390;-2.328;2023-04-03T02:11:29;6.65;;;2.67;;
24681;SDS011;12802;53.390;-2.328;2023-04-03T02:13:55;5.32;;;2.80;;
24681;SDS011;12802;53.390;-2.328;2023-04-03T02:16:21;6.55;;;2.25;;
24681;SDS011;12802;53.390;-2.328;2023-04-03T02:18:48;6.68;;;1.77;;
24681;SDS011;12802;53.390;-2.328;2023-04-03T02:21:14;4.97;;;2.30;;
24681;SDS011;12802;53.390;-2.328;2023-04-03T02:23:40;5.32;;;2.40;;
24681;SDS011;12802;53.390;-2.328;2023-04-03T02:26:07;5.13;;;2.47;;
24681;SDS011;12802;53.390;-2.328;2023-04-03T02:28:34;3.63;;;2.40;;
24681;SDS011;12802;53.390;-2.328;2023-04-03T02:31:01;7.40;;;2.70;;
24681;SDS011;12802;53.390;-2.328;2023-04-03T02:33:28;3.45;;;2.08;;
24681;SDS011;12802;53.390;-2.328;2023-04-03T02:35:55;5.30;;;2.22;;
24681;SDS011;12802;53.390;-2.328;2023-04-03T02:38:22;4.45;;;2.90;;
24681;SDS011;12802;53.390;-2.328;2023-04-03T02:40:49;7.72;;;2.60;;
24681;SDS011;12802;53.390;-2.328;2023-04-03T02:43:15;3.58;;;2.42;;
24681;SDS011;12802;53.390;-2.328;2023-04-03T02:45:41;5.75;;;2.60;;
24681;SDS011;12802;53.390;-2.328;2023-04-03T02:48:07;5.60;;;2.13;;
24681;SDS011;12802;53.390;-2.328;2023-04-03T02:50:34;7.40;;;2.25;;
24681;SDS011;12802;53.390;-2.328;2023-04-03T02:52:59;6.60;;;2.67;;
24681;SDS011;12802;53.390;-2.328;2023-04-03T02:55:26;2.85;;;1.90;;
24681;SDS011;12802;53.390;-2.328;2023-04-03T02:57:54;2.75;;;1.92;;
24681;SDS011;12802;53.390;-2.328;2023-04-03T03:00:20;13.23;;;2.60;;
24681;SDS011;12802;53.390;-2.328;2023-04-03T03:02:46;8.20;;;3.05;;
24681;SDS011;12802;53.390;-2.328;2023-04-03T03:05:13;4.32;;;2.35;;
24681;SDS011;12802;53.390;-2.328;2023-04-03T03:07:39;3.60;;;2.05;;
24681;SDS011;12802;53.390;-2.328;2023-04-03T03:10:05;5.20;;;2.45;;
24681;SDS011;12802;53.390;-2.328;2023-04-03T03:12:31;5.65;;;2.58;;
24681;SDS011;12802;53.390;-2.328;2023-04-03T03:14:57;3.53;;;2.03;;
24681;SDS011;12802;53.390;-2.328;2023-04-03T03:17:22;5.72;;;2.90;;
24681;SDS011;12802;53.390;-2.328;2023-04-03T03:19:48;5.25;;;2.80;;
24681;SDS011;12802;53.390;-2.328;2023-04-03T03:22:15;4.90;;;2.33;;
24681;SDS011;12802;53.390;-2.328;2023-04-03T03:24:42;4.93;;;2.35;;
24681;SDS011;12802;53.390;-2.328;2023-04-03T03:27:08;4.28;;;2.25;;
24681;SDS011;12802;53.390;-2.328;2023-04-03T03:29:33;7.85;;;2.78;;
24681;SDS011;12802;53.390;-2.328;2023-04-03T03:31:59;8.57;;;2.80;;
24681;SDS011;12802;53.390;-2.328;2023-04-03T03:34:25;6.53;;;2.83;;
24681;SDS011;12802;53.390;-2.328;2023-04-03T03:36:51;8.13;;;2.38;;
24681;SDS011;12802;53.390;-2.328;2023-04-03T03:39:17;7.75;;;2.25;;
24681;SDS011;12802;53.390;-2.328;2023-04-03T03:41:44;10.23;;;2.75;;
24681;SDS011;12802;53.390;-2.328;2023-04-03T03:44:10;6.63;;;2.00;;
24681;SDS011;12802;53.390;-2.328;2023-04-03T03:46:36;7.35;;;2.33;;
24681;SDS011;12802;53.390;-2.328;2023-04-03T03:49:02;11.60;;;2.83;;
24681;SDS011;12802;53.390;-2.328;2023-04-03T03:51:28;7.13;;;3.00;;
24681;SDS011;12802;53.390;-2.328;2023-04-03T03:53:54;3.58;;;2.03;;
24681;SDS011;12802;53.390;-2.328;2023-04-03T03:56:20;4.90;;;3.00;;
24681;SDS011;12802;53.390;-2.328;2023-04-03T03:58:45;13.30;;;2.72;;
24681;SDS011;12802;53.390;-2.328;2023-04-03T04:01:12;11.65;;;2.28;;
24681;SDS011;12802;53.390;-2.328;2023-04-03T04:03:42;5.68;;;2.08;;
24681;SDS011;12802;53.390;-2.328;2023-04-03T04:06:11;6.18;;;3.17;;
24681;SDS011;12802;53.390;-2.328;2023-04-03T04:08:37;7.40;;;2.70;;
24681;SDS011;12802;53.390;-2.328;2023-04-03T04:11:05;4.00;;;2.78;;
24681;SDS011;12802;53.390;-2.328;2023-04-03T04:13:31;7.32;;;2.90;;
24681;SDS011;12802;53.390;-2.328;2023-04-03T04:15:57;4.55;;;2.28;;
24681;SDS011;12802;53.390;-2.328;2023-04-03T04:18:23;9.57;;;2.92;;
24681;SDS011;12802;53.390;-2.328;2023-04-03T04:20:49;5.38;;;2.60;;
24681;SDS011;12802;53.390;-2.328;2023-04-03T04:23:17;7.90;;;2.38;;
24681;SDS011;12802;53.390;-2.328;2023-04-03T04:25:44;8.50;;;3.15;;
24681;SDS011;12802;53.390;-2.328;2023-04-03T04:28:11;7.30;;;2.58;;
24681;SDS011;12802;53.390;-2.328;2023-04-03T04:30:37;6.63;;;3.33;;
24681;SDS011;12802;53.390;-2.328;2023-04-03T04:33:03;7.13;;;2.97;;
24681;SDS011;12802;53.390;-2.328;2023-04-03T04:35:32;5.97;;;2.40;;
24681;SDS011;12802;53.390;-2.328;2023-04-03T04:37:59;6.75;;;2.60;;
24681;SDS011;12802;53.390;-2.328;2023-04-03T04:40:25;6.07;;;2.88;;
24681;SDS011;12802;53.390;-2.328;2023-04-03T04:42:51;4.88;;;2.65;;
24681;SDS011;12802;53.390;-2.328;2023-04-03T04:45:17;6.95;;;2.53;;
24681;SDS011;12802;53.390;-2.328;2023-04-03T04:47:45;10.20;;;2.92;;
24681;SDS011;12802;53.390;-2.328;2023-04-03T04:50:10;9.80;;;2.78;;
24681;SDS011;12802;53.390;-2.328;2023-04-03T04:52:37;6.85;;;3.35;;
24681;SDS011;12802;53.390;-2.328;2023-04-03T04:55:03;8.23;;;2.85;;
24681;SDS011;12802;53.390;-2.328;2023-04-03T04:57:30;5.88;;;2.83;;
24681;SDS011;12802;53.390;-2.328;2023-04-03T04:59:57;5.50;;;3.13;;
24681;SDS011;12802;53.390;-2.328;2023-04-03T05:02:23;6.05;;;3.13;;
24681;SDS011;12802;53.390;-2.328;2023-04-03T05:04:49;8.50;;;2.70;;
24681;SDS011;12802;53.390;-2.328;2023-04-03T05:07:20;14.02;;;3.22;;
24681;SDS011;12802;53.390;-2.328;2023-04-03T05:09:46;8.52;;;2.95;;
24681;SDS011;12802;53.390;-2.328;2023-04-03T05:12:13;9.88;;;2.72;;
24681;SDS011;12802;53.390;-2.328;2023-04-03T05:14:46;4.35;;;2.63;;
24681;SDS011;12802;53.390;-2.328;2023-04-03T05:17:11;8.80;;;2.97;;
24681;SDS011;12802;53.390;-2.328;2023-04-03T05:19:41;7.22;;;2.97;;
24681;SDS011;12802;53.390;-2.328;2023-04-03T05:22:08;11.82;;;2.83;;
24681;SDS011;12802;53.390;-2.328;2023-04-03T05:24:35;9.40;;;2.97;;
24681;SDS011;12802;53.390;-2.328;2023-04-03T05:27:01;14.68;;;3.35;;
24681;SDS011;12802;53.390;-2.328;2023-04-03T05:29:28;4.22;;;2.60;;
24681;SDS011;12802;53.390;-2.328;2023-04-03T05:31:55;3.22;;;2.25;;
24681;SDS011;12802;53.390;-2.328;2023-04-03T05:34:21;5.13;;;3.03;;
24681;SDS011;12802;53.390;-2.328;2023-04-03T05:36:50;7.13;;;3.40;;
24681;SDS011;12802;53.390;-2.328;2023-04-03T05:39:16;5.22;;;2.92;;
24681;SDS011;12802;53.390;-2.328;2023-04-03T05:41:43;4.95;;;2.53;;
24681;SDS011;12802;53.390;-2.328;2023-04-03T05:44:10;3.58;;;3.05;;
24681;SDS011;12802;53.390;-2.328;2023-04-03T05:46:36;4.05;;;3.20;;
24681;SDS011;12802;53.390;-2.328;2023-04-03T05:49:04;7.97;;;3.60;;
24681;SDS011;12802;53.390;-2.328;2023-04-03T05:51:34;11.10;;;3.60;;
24681;SDS011;12802;53.390;-2.328;2023-04-03T05:54:17;8.40;;;3.42;;
24681;SDS011;12802;53.390;-2.328;2023-04-03T05:56:54;10.68;;;3.03;;
24681;SDS011;12802;53.390;-2.328;2023-04-03T05:59:21;5.97;;;2.88;;
24681;SDS011;12802;53.390;-2.328;2023-04-03T06:01:49;10.60;;;2.92;;
24681;SDS011;12802;53.390;-2.328;2023-04-03T06:04:15;21.42;;;3.42;;
24681;SDS011;12802;53.390;-2.328;2023-04-03T06:06:44;8.57;;;3.63;;
24681;SDS011;12802;53.390;-2.328;2023-04-03T06:09:11;6.30;;;3.00;;
24681;SDS011;12802;53.390;-2.328;2023-04-03T06:11:37;5.05;;;2.55;;
24681;SDS011;12802;53.390;-2.328;2023-04-03T06:14:04;7.97;;;3.28;;
24681;SDS011;12802;53.390;-2.328;2023-04-03T06:16:30;6.25;;;3.30;;
24681;SDS011;12802;53.390;-2.328;2023-04-03T06:18:55;8.05;;;3.60;;
24681;SDS011;12802;53.390;-2.328;2023-04-03T06:21:22;5.80;;;2.88;;
24681;SDS011;12802;53.390;-2.328;2023-04-03T06:23:48;8.45;;;2.90;;
24681;SDS011;12802;53.390;-2.328;2023-04-03T06:26:13;10.88;;;2.78;;
24681;SDS011;12802;53.390;-2.328;2023-04-03T06:28:39;7.00;;;3.35;;
24681;SDS011;12802;53.390;-2.328;2023-04-03T06:31:05;6.90;;;2.85;;
24681;SDS011;12802;53.390;-2.328;2023-04-03T06:33:31;16.35;;;3.97;;
24681;SDS011;12802;53.390;-2.328;2023-04-03T06:35:58;8.82;;;3.60;;
24681;SDS011;12802;53.390;-2.328;2023-04-03T06:38:24;8.05;;;3.42;;
24681;SDS011;12802;53.390;-2.328;2023-04-03T06:40:50;6.72;;;3.28;;
24681;SDS011;12802;53.390;-2.328;2023-04-03T06:43:16;6.72;;;3.13;;
24681;SDS011;12802;53.390;-2.328;2023-04-03T06:45:42;17.13;;;3.97;;
24681;SDS011;12802;53.390;-2.328;2023-04-03T06:48:08;8.05;;;4.05;;
24681;SDS011;12802;53.390;-2.328;2023-04-03T06:50:34;8.05;;;3.08;;
24681;SDS011;12802;53.390;-2.328;2023-04-03T06:53:00;11.40;;;3.70;;
24681;SDS011;12802;53.390;-2.328;2023-04-03T06:55:26;12.98;;;4.25;;
24681;SDS011;12802;53.390;-2.328;2023-04-03T06:57:52;18.60;;;3.83;;
24681;SDS011;12802;53.390;-2.328;2023-04-03T07:00:17;14.52;;;3.65;;
24681;SDS011;12802;53.390;-2.328;2023-04-03T07:02:44;9.88;;;4.15;;
24681;SDS011;12802;53.390;-2.328;2023-04-03T07:05:10;11.27;;;4.13;;
24681;SDS011;12802;53.390;-2.328;2023-04-03T07:07:36;21.55;;;4.47;;
24681;SDS011;12802;53.390;-2.328;2023-04-03T07:10:03;8.63;;;3.53;;
24681;SDS011;12802;53.390;-2.328;2023-04-03T07:12:31;9.57;;;4.20;;
24681;SDS011;12802;53.390;-2.328;2023-04-03T07:14:57;12.05;;;2.53;;
24681;SDS011;12802;53.390;-2.328;2023-04-03T07:17:23;2.85;;;2.00;;
24681;SDS011;12802;53.390;-2.328;2023-04-03T07:19:50;6.22;;;2.10;;
24681;SDS011;12802;53.390;-2.328;2023-04-03T07:22:16;7.70;;;2.50;;
24681;SDS011;12802;53.390;-2.328;2023-04-03T07:24:42;5.60;;;2.50;;
24681;SDS011;12802;53.390;-2.328;2023-04-03T07:27:08;7.05;;;2.45;;
24681;SDS011;12802;53.390;-2.328;2023-04-03T07:29:34;3.63;;;1.90;;
24681;SDS011;12802;53.390;-2.328;2023-04-03T07:32:00;5.15;;;1.90;;
24681;SDS011;12802;53.390;-2.328;2023-04-03T07:34:27;8.50;;;1.42;;
24681;SDS011;12802;53.390;-2.328;2023-04-03T07:36:53;8.70;;;2.88;;
24681;SDS011;12802;53.390;-2.328;2023-04-03T07:39:18;7.35;;;1.60;;
24681;SDS011;12802;53.390;-2.328;2023-04-03T07:41:44;4.25;;;1.52;;
24681;SDS011;12802;53.390;-2.328;2023-04-03T07:44:10;10.13;;;1.83;;
24681;SDS011;12802;53.390;-2.328;2023-04-03T07:46:36;4.95;;;2.30;;
24681;SDS011;12802;53.390;-2.328;2023-04-03T07:49:03;6.28;;;2.03;;
24681;SDS011;12802;53.390;-2.328;2023-04-03T07:51:29;8.23;;;1.92;;
24681;SDS011;12802;53.390;-2.328;2023-04-03T07:53:55;10.07;;;2.03;;
24681;SDS011;12802;53.390;-2.328;2023-04-03T07:56:21;9.57;;;1.52;;
24681;SDS011;12802;53.390;-2.328;2023-04-03T07:58:47;5.57;;;1.95;;
24681;SDS011;12802;53.390;-2.328;2023-04-03T08:01:13;11.23;;;2.38;;
24681;SDS011;12802;53.390;-2.328;2023-04-03T08:03:39;5.03;;;2.00;;
24681;SDS011;12802;53.390;-2.328;2023-04-03T08:06:06;8.85;;;1.80;;
24681;SDS011;12802;53.390;-2.328;2023-04-03T08:08:33;2.03;;;1.15;;
24681;SDS011;12802;53.390;-2.328;2023-04-03T08:11:00;5.53;;;2.00;;
24681;SDS011;12802;53.390;-2.328;2023-04-03T08:13:28;4.90;;;1.30;;
24681;SDS011;12802;53.390;-2.328;2023-04-03T08:15:55;4.75;;;1.75;;
24681;SDS011;12802;53.390;-2.328;2023-04-03T08:18:22;17.40;;;1.65;;
24681;SDS011;12802;53.390;-2.328;2023-04-03T08:20:50;9.30;;;1.73;;
24681;SDS011;12802;53.390;-2.328;2023-04-03T08:23:17;4.28;;;1.63;;
24681;SDS011;12802;53.390;-2.328;2023-04-03T08:25:43;4.20;;;1.58;;
24681;SDS011;12802;53.390;-2.328;2023-04-03T08:28:10;8.57;;;1.23;;
24681;SDS011;12802;53.390;-2.328;2023-04-03T08:30:38;4.07;;;1.38;;
24681;SDS011;12802;53.390;-2.328;2023-04-03T08:33:05;6.82;;;1.52;;
24681;SDS011;12802;53.390;-2.328;2023-04-03T08:35:31;5.88;;;1.95;;
24681;SDS011;12802;53.390;-2.328;2023-04-03T08:37:57;2.05;;;1.20;;
24681;SDS011;12802;53.390;-2.328;2023-04-03T08:40:23;6.35;;;1.13;;
24681;SDS011;12802;53.390;-2.328;2023-04-03T08:48:13;4.50;;;1.45;;
24681;SDS011;12802;53.390;-2.328;2023-04-03T08:50:49;11.00;;;1.55;;
24681;SDS011;12802;53.390;-2.328;2023-04-03T08:53:19;6.18;;;1.65;;
24681;SDS011;12802;53.390;-2.328;2023-04-03T08:55:49;2.28;;;0.95;;
24681;SDS011;12802;53.390;-2.328;2023-04-03T08:58:18;15.43;;;2.28;;
24681;SDS011;12802;53.390;-2.328;2023-04-03T09:03:21;5.30;;;1.48;;
24681;SDS011;12802;53.390;-2.328;2023-04-03T09:08:33;8.98;;;1.55;;
24681;SDS011;12802;53.390;-2.328;2023-04-03T09:11:15;3.97;;;1.48;;
24681;SDS011;12802;53.390;-2.328;2023-04-03T09:22:41;6.85;;;1.65;;
24681;SDS011;12802;53.390;-2.328;2023-04-03T09:27:45;2.72;;;1.35;;
24681;SDS011;12802;53.390;-2.328;2023-04-03T09:30:14;5.35;;;1.40;;
24681;SDS011;12802;53.390;-2.328;2023-04-03T09:32:46;9.90;;;1.70;;
24681;SDS011;12802;53.390;-2.328;2023-04-03T09:37:51;2.70;;;1.45;;
24681;SDS011;12802;53.390;-2.328;2023-04-03T09:42:51;3.38;;;1.55;;
24681;SDS011;12802;53.390;-2.328;2023-04-03T09:45:23;6.22;;;1.40;;
24681;SDS011;12802;53.390;-2.328;2023-04-03T09:48:03;7.57;;;1.75;;
24681;SDS011;12802;53.390;-2.328;2023-04-03T09:50:41;13.20;;;2.00;;
24681;SDS011;12802;53.390;-2.328;2023-04-03T09:56:19;3.20;;;1.58;;
24681;SDS011;12802;53.390;-2.328;2023-04-03T09:58:51;6.32;;;1.55;;
24681;SDS011;12802;53.390;-2.328;2023-04-03T10:01:32;6.35;;;1.85;;
24681;SDS011;12802;53.390;-2.328;2023-04-03T10:06:40;14.50;;;2.35;;
24681;SDS011;12802;53.390;-2.328;2023-04-03T10:14:33;4.55;;;1.80;;
24681;SDS011;12802;53.390;-2.328;2023-04-03T10:17:21;5.70;;;1.92;;
24681;SDS011;12802;53.390;-2.328;2023-04-03T10:36:06;7.10;;;1.85;;
24681;SDS011;12802;53.390;-2.328;2023-04-03T10:44:37;4.00;;;1.45;;
24681;SDS011;12802;53.390;-2.328;2023-04-03T10:49:55;3.97;;;1.63;;
24681;SDS011;12802;53.390;-2.328;2023-04-03T10:52:32;11.13;;;2.00;;
24681;SDS011;12802;53.390;-2.328;2023-04-03T10:55:14;3.50;;;1.48;;
24681;SDS011;12802;53.390;-2.328;2023-04-03T10:57:52;3.85;;;1.60;;
24681;SDS011;12802;53.390;-2.328;2023-04-03T11:00:39;4.05;;;1.77;;
24681;SDS011;12802;53.390;-2.328;2023-04-03T11:03:16;7.78;;;1.75;;
24681;SDS011;12802;53.390;-2.328;2023-04-03T11:06:11;3.17;;;1.48;;
24681;SDS011;12802;53.390;-2.328;2023-04-03T11:11:29;5.32;;;2.03;;
24681;SDS011;12802;53.390;-2.328;2023-04-03T11:17:19;3.50;;;1.83;;
24681;SDS011;12802;53.390;-2.328;2023-04-03T11:20:17;5.80;;;2.05;;
24681;SDS011;12802;53.390;-2.328;2023-04-03T11:22:54;9.43;;;2.33;;
24681;SDS011;12802;53.390;-2.328;2023-04-03T11:25:26;3.35;;;1.77;;
24681;SDS011;12802;53.390;-2.328;2023-04-03T11:27:58;5.32;;;1.70;;
24681;SDS011;12802;53.390;-2.328;2023-04-03T11:35:36;5.05;;;2.08;;
24681;SDS011;12802;53.390;-2.328;2023-04-03T11:38:10;3.92;;;1.75;;
24681;SDS011;12802;53.390;-2.328;2023-04-03T11:40:45;8.55;;;1.40;;
24681;SDS011;12802;53.390;-2.328;2023-04-03T11:43:30;6.05;;;1.70;;
24681;SDS011;12802;53.390;-2.328;2023-04-03T11:46:01;6.35;;;2.28;;
24681;SDS011;12802;53.390;-2.328;2023-04-03T11:50:58;6.43;;;2.22;;
24681;SDS011;12802;53.390;-2.328;2023-04-03T11:53:35;7.97;;;1.80;;
24681;SDS011;12802;53.390;-2.328;2023-04-03T11:59:32;2.05;;;1.25;;
24681;SDS011;12802;53.390;-2.328;2023-04-03T12:04:14;5.93;;;1.77;;
24681;SDS011;12802;53.390;-2.328;2023-04-03T12:09:22;5.18;;;1.65;;
24681;SDS011;12802;53.390;-2.328;2023-04-03T12:11:56;2.75;;;1.60;;
24681;SDS011;12802;53.390;-2.328;2023-04-03T12:14:24;4.57;;;2.17;;
24681;SDS011;12802;53.390;-2.328;2023-04-03T12:16:52;4.13;;;1.70;;
24681;SDS011;12802;53.390;-2.328;2023-04-03T12:24:29;7.22;;;2.30;;
24681;SDS011;12802;53.390;-2.328;2023-04-03T12:38:03;4.07;;;1.67;;
24681;SDS011;12802;53.390;-2.328;2023-04-03T12:46:24;7.95;;;1.90;;
24681;SDS011;12802;53.390;-2.328;2023-04-03T12:48:29;6.15;;;2.00;;
24681;SDS011;12802;53.390;-2.328;2023-04-03T12:50:59;3.53;;;1.58;;
24681;SDS011;12802;53.390;-2.328;2023-04-03T12:53:26;4.63;;;1.75;;
24681;SDS011;12802;53.390;-2.328;2023-04-03T12:58:52;5.70;;;1.77;;
24681;SDS011;12802;53.390;-2.328;2023-04-03T13:01:24;12.63;;;2.05;;
24681;SDS011;12802;53.390;-2.328;2023-04-03T13:03:54;2.70;;;1.60;;
24681;SDS011;12802;53.390;-2.328;2023-04-03T13:06:26;11.52;;;1.95;;
24681;SDS011;12802;53.390;-2.328;2023-04-03T13:08:57;2.55;;;1.52;;
24681;SDS011;12802;53.390;-2.328;2023-04-03T13:11:30;7.55;;;1.58;;
24681;SDS011;12802;53.390;-2.328;2023-04-03T13:14:14;5.13;;;1.65;;
24681;SDS011;12802;53.390;-2.328;2023-04-03T13:16:52;5.65;;;1.60;;
24681;SDS011;12802;53.390;-2.328;2023-04-03T13:19:22;3.28;;;1.80;;
24681;SDS011;12802;53.390;-2.328;2023-04-03T13:21:51;5.72;;;1.92;;
24681;SDS011;12802;53.390;-2.328;2023-04-03T13:24:34;5.10;;;1.70;;
24681;SDS011;12802;53.390;-2.328;2023-04-03T13:29:31;3.08;;;1.63;;
24681;SDS011;12802;53.390;-2.328;2023-04-03T13:32:00;4.88;;;1.83;;
24681;SDS011;12802;53.390;-2.328;2023-04-03T13:34:37;5.47;;;2.08;;
24681;SDS011;12802;53.390;-2.328;2023-04-03T13:37:06;4.30;;;1.77;;
24681;SDS011;12802;53.390;-2.328;2023-04-03T13:39:43;7.65;;;1.85;;
24681;SDS011;12802;53.390;-2.328;2023-04-03T13:42:23;3.42;;;1.60;;
24681;SDS011;12802;53.390;-2.328;2023-04-03T13:51:03;7.80;;;1.88;;
24681;SDS011;12802;53.390;-2.328;2023-04-03T13:53:42;3.25;;;1.85;;
24681;SDS011;12802;53.390;-2.328;2023-04-03T13:56:18;4.05;;;1.75;;
24681;SDS011;12802;53.390;-2.328;2023-04-03T13:59:00;4.57;;;2.58;;
24681;SDS011;12802;53.390;-2.328;2023-04-03T14:04:15;4.70;;;1.70;;
24681;SDS011;12802;53.390;-2.328;2023-04-03T14:06:53;11.32;;;2.15;;
24681;SDS011;12802;53.390;-2.328;2023-04-03T14:09:20;9.13;;;1.88;;
24681;SDS011;12802;53.390;-2.328;2023-04-03T14:11:47;7.60;;;2.13;;
24681;SDS011;12802;53.390;-2.328;2023-04-03T14:14:26;6.33;;;2.17;;
24681;SDS011;12802;53.390;-2.328;2023-04-03T14:16:56;5.95;;;2.58;;
24681;SDS011;12802;53.390;-2.328;2023-04-03T14:19:43;11.60;;;2.22;;
24681;SDS011;12802;53.390;-2.328;2023-04-03T14:22:14;6.15;;;2.15;;
24681;SDS011;12802;53.390;-2.328;2023-04-03T14:24:40;4.72;;;2.00;;
24681;SDS011;12802;53.390;-2.328;2023-04-03T14:27:11;5.45;;;1.65;;
24681;SDS011;12802;53.390;-2.328;2023-04-03T14:29:41;5.00;;;1.65;;
24681;SDS011;12802;53.390;-2.328;2023-04-03T14:32:07;8.13;;;1.77;;
24681;SDS011;12802;53.390;-2.328;2023-04-03T14:34:35;5.93;;;1.85;;
24681;SDS011;12802;53.390;-2.328;2023-04-03T14:37:01;4.63;;;1.98;;
24681;SDS011;12802;53.390;-2.328;2023-04-03T14:39:27;5.68;;;1.98;;
24681;SDS011;12802;53.390;-2.328;2023-04-03T14:41:52;11.25;;;2.00;;
24681;SDS011;12802;53.390;-2.328;2023-04-03T14:44:18;3.75;;;1.85;;
24681;SDS011;12802;53.390;-2.328;2023-04-03T14:46:44;6.80;;;2.13;;
24681;SDS011;12802;53.390;-2.328;2023-04-03T14:49:12;2.70;;;1.40;;
24681;SDS011;12802;53.390;-2.328;2023-04-03T14:51:47;5.18;;;1.88;;
24681;SDS011;12802;53.390;-2.328;2023-04-03T14:54:17;5.70;;;1.95;;
24681;SDS011;12802;53.390;-2.328;2023-04-03T14:56:46;3.85;;;1.80;;
24681;SDS011;12802;53.390;-2.328;2023-04-03T14:59:13;6.97;;;2.20;;
24681;SDS011;12802;53.390;-2.328;2023-04-03T15:01:39;3.15;;;1.77;;
24681;SDS011;12802;53.390;-2.328;2023-04-03T15:04:19;5.05;;;2.10;;
24681;SDS011;12802;53.390;-2.328;2023-04-03T15:06:46;3.17;;;1.60;;
24681;SDS011;12802;53.390;-2.328;2023-04-03T15:09:20;6.10;;;2.00;;
24681;SDS011;12802;53.390;-2.328;2023-04-03T15:11:48;4.28;;;1.90;;
24681;SDS011;12802;53.390;-2.328;2023-04-03T15:14:15;4.13;;;1.50;;
24681;SDS011;12802;53.390;-2.328;2023-04-03T15:16:41;2.92;;;1.48;;
24681;SDS011;12802;53.390;-2.328;2023-04-03T15:19:07;5.65;;;1.75;;
24681;SDS011;12802;53.390;-2.328;2023-04-03T15:21:33;4.78;;;1.83;;
24681;SDS011;12802;53.390;-2.328;2023-04-03T15:23:59;7.82;;;2.08;;
24681;SDS011;12802;53.390;-2.328;2023-04-03T15:26:25;3.95;;;1.85;;
24681;SDS011;12802;53.390;-2.328;2023-04-03T15:28:50;5.15;;;2.05;;
24681;SDS011;12802;53.390;-2.328;2023-04-03T15:31:16;3.60;;;1.98;;
24681;SDS011;12802;53.390;-2.328;2023-04-03T15:33:42;7.65;;;2.08;;
24681;SDS011;12802;53.390;-2.328;2023-04-03T15:36:08;4.38;;;1.45;;
24681;SDS011;12802;53.390;-2.328;2023-04-03T15:38:34;5.47;;;2.00;;
24681;SDS011;12802;53.390;-2.328;2023-04-03T15:41:00;5.43;;;2.30;;
24681;SDS011;12802;53.390;-2.328;2023-04-03T15:43:28;5.13;;;2.03;;
24681;SDS011;12802;53.390;-2.328;2023-04-03T15:45:56;5.57;;;2.03;;
24681;SDS011;12802;53.390;-2.328;2023-04-03T15:48:23;4.07;;;1.65;;
24681;SDS011;12802;53.390;-2.328;2023-04-03T15:50:49;7.70;;;2.53;;
24681;SDS011;12802;53.390;-2.328;2023-04-03T15:53:15;8.88;;;1.95;;
24681;SDS011;12802;53.390;-2.328;2023-04-03T15:55:41;2.47;;;1.52;;
24681;SDS011;12802;53.390;-2.328;2023-04-03T15:58:07;4.53;;;1.60;;
24681;SDS011;12802;53.390;-2.328;2023-04-03T16:00:33;5.65;;;2.13;;
24681;SDS011;12802;53.390;-2.328;2023-04-03T16:03:11;8.38;;;2.10;;
24681;SDS011;12802;53.390;-2.328;2023-04-03T16:05:40;3.10;;;1.67;;
24681;SDS011;12802;53.390;-2.328;2023-04-03T16:08:06;5.18;;;1.92;;
24681;SDS011;12802;53.390;-2.328;2023-04-03T16:10:33;7.32;;;1.50;;
24681;SDS011;12802;53.390;-2.328;2023-04-03T16:12:59;3.70;;;1.85;;
24681;SDS011;12802;53.390;-2.328;2023-04-03T16:15:25;4.80;;;1.75;;
24681;SDS011;12802;53.390;-2.328;2023-04-03T16:17:52;3.95;;;1.85;;
24681;SDS011;12802;53.390;-2.328;2023-04-03T16:20:19;6.45;;;2.65;;
24681;SDS011;12802;53.390;-2.328;2023-04-03T16:22:47;3.50;;;2.00;;
24681;SDS011;12802;53.390;-2.328;2023-04-03T16:25:13;4.90;;;2.15;;
24681;SDS011;12802;53.390;-2.328;2023-04-03T16:27:38;4.72;;;2.20;;
24681;SDS011;12802;53.390;-2.328;2023-04-03T16:30:05;6.20;;;1.83;;
24681;SDS011;12802;53.390;-2.328;2023-04-03T16:32:32;9.27;;;2.45;;
24681;SDS011;12802;53.390;-2.328;2023-04-03T16:34:58;6.30;;;2.28;;
24681;SDS011;12802;53.390;-2.328;2023-04-03T16:37:25;6.25;;;2.10;;
24681;SDS011;12802;53.390;-2.328;2023-04-03T16:39:51;3.85;;;2.08;;
24681;SDS011;12802;53.390;-2.328;2023-04-03T16:42:17;7.45;;;1.98;;
24681;SDS011;12802;53.390;-2.328;2023-04-03T16:44:42;10.90;;;2.15;;
24681;SDS011;12802;53.390;-2.328;2023-04-03T16:47:08;4.30;;;1.80;;